createdAt,value
2022-11-11T00:01:23.392Z,0.80
2022-11-11T00:03:58.067Z,0.80
2022-11-11T00:06:29.929Z,0.60
2022-11-11T00:09:01.663Z,0.70
2022-11-11T00:11:33.070Z,0.80
2022-11-11T00:14:05.900Z,0.90
2022-11-11T00:16:50.373Z,0.80
2022-11-11T00:19:38.177Z,0.70
2022-11-11T00:22:29.419Z,0.80
2022-11-11T00:25:11.051Z,0.80
2022-11-11T00:27:45.351Z,0.80
2022-11-11T00:30:17.990Z,1.00
2022-11-11T00:32:49.663Z,0.70
2022-11-11T00:35:39.889Z,1.00
2022-11-11T00:38:39.443Z,3.30
2022-11-11T00:41:12.146Z,5.60
2022-11-11T00:43:44.506Z,6.10
2022-11-11T00:46:33.571Z,5.10
2022-11-11T00:49:21.725Z,2.20
2022-11-11T00:51:53.433Z,2.70
2022-11-11T00:54:25.364Z,3.40
2022-11-11T00:56:57.224Z,4.00
2022-11-11T00:59:29.787Z,4.80
2022-11-11T01:02:01.707Z,3.30
2022-11-11T01:04:33.499Z,3.00
2022-11-11T01:07:05.593Z,2.40
2022-11-11T01:09:38.245Z,3.10
2022-11-11T01:12:10.993Z,4.60
2022-11-11T01:14:42.767Z,3.60
2022-11-11T01:17:14.655Z,3.00
2022-11-11T01:19:46.039Z,2.30
2022-11-11T01:22:18.219Z,2.20
2022-11-11T01:24:51.710Z,1.80
2022-11-11T01:27:23.531Z,2.00
2022-11-11T01:29:55.654Z,1.30
2022-11-11T01:32:27.303Z,1.30
2022-11-11T01:34:58.924Z,1.30
2022-11-11T01:37:31.870Z,0.70
2022-11-11T01:40:03.628Z,0.80
2022-11-11T01:42:49.433Z,0.80
2022-11-11T01:45:59.224Z,1.10
2022-11-11T01:48:54.092Z,1.10
2022-11-11T01:51:36.612Z,1.30
2022-11-11T01:54:13.592Z,1.00
2022-11-11T01:56:47.778Z,1.10
2022-11-11T01:59:21.313Z,0.70
2022-11-11T02:01:54.825Z,1.40
2022-11-11T02:07:14.799Z,0.70
2022-11-11T02:09:50.424Z,1.10
2022-11-11T02:12:37.879Z,0.90
2022-11-11T02:15:15.248Z,0.80
2022-11-11T02:17:47.715Z,0.90
2022-11-11T02:20:22.495Z,0.80
2022-11-11T02:23:00.707Z,0.80
2022-11-11T02:25:35.032Z,0.70
2022-11-11T02:28:09.447Z,1.10
2022-11-11T02:30:41.608Z,0.60
2022-11-11T02:33:13.223Z,0.60
2022-11-11T02:35:49.865Z,0.80
2022-11-11T02:38:21.543Z,0.70
2022-11-11T02:41:06.902Z,0.60
2022-11-11T02:43:39.655Z,0.60
2022-11-11T02:46:12.537Z,0.90
2022-11-11T02:48:44.626Z,0.70
2022-11-11T02:51:17.262Z,0.90
2022-11-11T02:53:51.755Z,0.70
2022-11-11T02:56:36.410Z,1.20
2022-11-11T02:59:10.878Z,0.90
2022-11-11T03:01:43.601Z,0.80
2022-11-11T03:04:16.361Z,0.70
2022-11-11T03:06:48.544Z,0.80
2022-11-11T03:09:21.784Z,0.80
2022-11-11T03:11:54.116Z,1.10
2022-11-11T03:14:25.446Z,0.90
2022-11-11T03:17:16.483Z,1.00
2022-11-11T03:19:48.302Z,0.70
2022-11-11T03:25:30.938Z,0.80
2022-11-11T03:28:03.152Z,1.00
2022-11-11T03:30:35.315Z,0.90
2022-11-11T03:33:12.940Z,1.00
2022-11-11T03:35:47.588Z,1.00
2022-11-11T03:38:25.022Z,1.30
2022-11-11T03:40:58.343Z,1.00
2022-11-11T03:43:31.639Z,1.00
2022-11-11T03:46:06.568Z,1.00
2022-11-11T03:48:38.342Z,1.30
2022-11-11T03:51:13.098Z,1.10
2022-11-11T03:56:44.538Z,1.30
2022-11-11T03:59:16.682Z,1.10
2022-11-11T04:02:06.690Z,1.40
2022-11-11T04:04:55.006Z,1.30
2022-11-11T04:07:45.503Z,1.50
2022-11-11T04:10:27.924Z,1.50
2022-11-11T04:13:17.883Z,1.10
2022-11-11T04:16:06.381Z,1.00
2022-11-11T04:18:54.365Z,1.10
2022-11-11T04:21:43.217Z,1.00
2022-11-11T04:24:44.289Z,1.60
2022-11-11T04:27:17.423Z,1.70
2022-11-11T04:29:50.980Z,1.20
2022-11-11T04:32:41.730Z,1.30
2022-11-11T04:35:15.080Z,1.20
2022-11-11T04:37:52.749Z,1.30
2022-11-11T04:40:41.716Z,1.30
2022-11-11T04:43:13.271Z,1.70
2022-11-11T04:45:45.017Z,1.70
2022-11-11T04:48:18.103Z,1.30
2022-11-11T04:50:50.313Z,1.60
2022-11-11T04:53:22.617Z,1.40
2022-11-11T04:56:10.880Z,1.30
2022-11-11T04:58:42.297Z,1.30
2022-11-11T05:01:34.746Z,1.30
2022-11-11T05:04:07.935Z,1.00
2022-11-11T05:09:32.475Z,1.50
2022-11-11T05:12:03.932Z,1.10
2022-11-11T05:14:52.286Z,1.10
2022-11-11T05:17:40.538Z,1.10
2022-11-11T05:20:30.412Z,1.40
2022-11-11T05:23:04.168Z,1.50
2022-11-11T05:25:37.260Z,1.10
2022-11-11T05:30:37.867Z,1.30
2022-11-11T05:33:09.680Z,0.90
2022-11-11T05:35:41.068Z,1.40
2022-11-11T05:38:26.764Z,1.20
2022-11-11T05:41:02.448Z,1.20
2022-11-11T05:43:34.280Z,1.00
2022-11-11T05:46:08.557Z,1.30
2022-11-11T05:49:01.776Z,1.20
2022-11-11T05:51:38.119Z,1.30
2022-11-11T05:54:21.065Z,3.10
2022-11-11T05:56:52.687Z,2.20
2022-11-11T05:59:25.650Z,1.60
2022-11-11T06:01:58.061Z,1.30
2022-11-11T06:04:30.131Z,2.10
2022-11-11T06:07:02.079Z,1.50
2022-11-11T06:09:34.004Z,2.10
2022-11-11T06:12:05.915Z,1.60
2022-11-11T06:14:38.038Z,1.40
2022-11-11T06:17:09.905Z,1.30
2022-11-11T06:19:41.761Z,1.40
2022-11-11T06:22:13.465Z,1.20
2022-11-11T06:25:05.195Z,1.70
2022-11-11T06:27:37.042Z,1.30
2022-11-11T06:30:42.644Z,1.20
2022-11-11T06:33:05.586Z,1.10
2022-11-11T06:35:37.653Z,1.50
2022-11-11T06:38:10.807Z,1.20
2022-11-11T06:40:42.517Z,1.60
2022-11-11T06:43:15.710Z,1.10
2022-11-11T06:48:16.277Z,1.10
2022-11-11T06:50:48.073Z,1.00
2022-11-11T06:53:21.970Z,1.10
2022-11-11T06:55:54.883Z,1.10
2022-11-11T06:58:27.298Z,1.20
2022-11-11T07:00:59.419Z,0.80
2022-11-11T07:03:31.720Z,1.20
2022-11-11T07:06:03.746Z,1.00
2022-11-11T07:08:36.029Z,1.10
2022-11-11T07:11:15.545Z,1.30
2022-11-11T07:13:49.461Z,1.00
2022-11-11T07:16:20.871Z,1.40
2022-11-11T07:18:53.016Z,1.50
2022-11-11T07:21:24.417Z,1.40
2022-11-11T07:23:56.358Z,1.70
2022-11-11T07:26:28.056Z,1.60
2022-11-11T07:29:00.089Z,1.10
2022-11-11T07:31:31.491Z,1.80
2022-11-11T07:34:04.037Z,1.40
2022-11-11T07:36:51.767Z,1.40
2022-11-11T07:39:23.427Z,1.90
2022-11-11T07:41:54.942Z,2.00
2022-11-11T07:44:26.681Z,1.20
2022-11-11T07:46:58.912Z,1.40
2022-11-11T07:49:31.372Z,1.60
2022-11-11T07:52:03.178Z,1.10
2022-11-11T07:54:34.846Z,1.80
2022-11-11T07:57:07.007Z,1.20
2022-11-11T07:59:38.631Z,1.40
2022-11-11T08:02:12.465Z,1.20
2022-11-11T08:04:45.709Z,1.30
2022-11-11T08:07:22.547Z,1.70
2022-11-11T08:09:55.684Z,1.60
2022-11-11T08:12:43.925Z,1.60
2022-11-11T08:15:17.062Z,1.90
2022-11-11T08:17:48.357Z,1.80
2022-11-11T08:20:21.716Z,2.00
2022-11-11T08:23:28.401Z,1.80
2022-11-11T08:25:48.846Z,2.40
2022-11-11T08:28:20.317Z,2.20
2022-11-11T08:30:52.755Z,2.00
2022-11-11T08:33:33.206Z,2.20
2022-11-11T08:36:09.159Z,2.40
2022-11-11T08:38:41.485Z,2.00
2022-11-11T08:41:14.246Z,2.80
2022-11-11T08:43:45.852Z,1.90
2022-11-11T08:46:17.897Z,1.80
2022-11-11T08:48:49.509Z,1.90
2022-11-11T08:51:21.815Z,2.10
2022-11-11T08:53:53.424Z,2.30
2022-11-11T08:56:25.425Z,1.90
2022-11-11T08:58:56.928Z,2.00
2022-11-11T09:01:29.435Z,2.10
2022-11-11T09:04:22.613Z,1.60
2022-11-11T09:06:52.888Z,1.60
2022-11-11T09:09:25.049Z,2.00
2022-11-11T09:11:57.150Z,1.60
2022-11-11T09:14:29.194Z,1.70
2022-11-11T09:17:00.864Z,1.60
2022-11-11T09:19:32.835Z,1.70
2022-11-11T09:22:07.147Z,1.80
2022-11-11T09:24:39.002Z,2.20
2022-11-11T09:27:11.790Z,2.10
2022-11-11T09:29:44.006Z,2.20
2022-11-11T09:32:15.853Z,2.40
2022-11-11T09:34:47.963Z,2.20
2022-11-11T09:37:19.837Z,2.50
2022-11-11T09:40:14.587Z,2.80
2022-11-11T09:42:53.068Z,3.00
2022-11-11T09:45:30.272Z,2.60
2022-11-11T09:48:22.047Z,2.40
2022-11-11T09:50:58.515Z,2.60
2022-11-11T09:53:36.420Z,2.00
2022-11-11T09:56:30.272Z,2.20
2022-11-11T09:59:10.825Z,1.60
2022-11-11T10:01:46.176Z,1.90
2022-11-11T10:04:37.730Z,2.10
2022-11-11T10:07:25.974Z,2.00
2022-11-11T10:10:02.748Z,2.10
2022-11-11T10:12:43.530Z,1.90
2022-11-11T10:15:20.284Z,1.60
2022-11-11T10:18:04.201Z,1.40
2022-11-11T10:20:39.291Z,1.60
2022-11-11T10:23:19.332Z,1.50
2022-11-11T10:25:56.745Z,1.30
2022-11-11T10:28:33.455Z,2.00
2022-11-11T10:31:10.089Z,1.50
2022-11-11T10:33:50.064Z,1.30
2022-11-11T10:36:25.046Z,1.60
2022-11-11T10:39:03.527Z,1.30
2022-11-11T10:41:41.869Z,1.60
2022-11-11T10:44:27.256Z,1.50
2022-11-11T10:47:07.884Z,2.00
2022-11-11T10:49:44.178Z,1.90
2022-11-11T10:52:22.908Z,1.90
2022-11-11T10:55:00.858Z,2.00
2022-11-11T10:57:39.350Z,2.20
2022-11-11T11:00:15.688Z,2.00
2022-11-11T11:02:55.145Z,2.00
2022-11-11T11:05:33.223Z,1.80
2022-11-11T11:08:11.848Z,1.80
2022-11-11T11:10:49.086Z,1.90
2022-11-11T11:13:25.551Z,2.10
2022-11-11T11:16:05.216Z,2.00
2022-11-11T11:18:42.955Z,1.60
2022-11-11T11:21:15.672Z,2.10
2022-11-11T11:23:48.919Z,2.50
2022-11-11T11:26:21.672Z,1.80
2022-11-11T11:29:08.402Z,2.20
2022-11-11T11:31:48.867Z,1.70
2022-11-11T11:34:20.183Z,1.80
2022-11-11T11:37:17.711Z,2.00
2022-11-11T11:39:49.504Z,2.00
2022-11-11T11:42:37.251Z,1.70
2022-11-11T11:45:24.197Z,1.90
2022-11-11T11:51:07.088Z,1.90
2022-11-11T11:53:58.305Z,2.30
2022-11-11T11:56:38.002Z,1.70
2022-11-11T11:59:19.948Z,1.90
2022-11-11T12:02:03.000Z,2.10
2022-11-11T12:05:06.122Z,1.80
2022-11-11T12:07:58.427Z,1.80
2022-11-11T12:10:43.864Z,2.30
2022-11-11T12:13:28.881Z,2.60
2022-11-11T12:16:08.532Z,1.70
2022-11-11T12:19:17.662Z,1.90
2022-11-11T12:22:03.261Z,2.10
2022-11-11T12:24:54.175Z,1.80
2022-11-11T12:27:34.001Z,1.50
2022-11-11T12:30:13.920Z,1.90
2022-11-11T12:33:11.445Z,2.10
2022-11-11T12:36:01.548Z,1.60
2022-11-11T12:38:48.690Z,2.00
2022-11-11T12:41:40.796Z,1.30
2022-11-11T12:44:15.450Z,1.70
2022-11-11T12:47:13.193Z,1.80
2022-11-11T12:49:56.968Z,2.20
2022-11-11T12:52:41.164Z,1.50
2022-11-11T12:55:23.136Z,1.40
2022-11-11T12:58:19.207Z,1.90
2022-11-11T13:01:02.239Z,1.90
2022-11-11T13:03:51.448Z,1.60
2022-11-11T13:06:40.155Z,1.70
2022-11-11T13:09:43.921Z,1.60
2022-11-11T13:15:06.496Z,1.60
2022-11-11T13:17:40.878Z,1.90
2022-11-11T13:20:23.433Z,1.70
2022-11-11T13:22:56.649Z,2.10
2022-11-11T13:25:33.930Z,2.10
2022-11-11T13:28:10.921Z,1.90
2022-11-11T13:30:57.430Z,1.90
2022-11-11T13:33:39.706Z,1.80
2022-11-11T13:36:15.950Z,2.30
2022-11-11T13:38:54.038Z,2.80
2022-11-11T13:41:32.214Z,2.00
2022-11-11T13:44:07.246Z,2.10
2022-11-11T13:46:51.227Z,2.20
2022-11-11T13:49:52.884Z,2.30
2022-11-11T13:52:29.687Z,2.30
2022-11-11T13:55:05.332Z,2.10
2022-11-11T13:57:46.142Z,2.30
2022-11-11T14:00:32.353Z,2.30
2022-11-11T14:03:38.193Z,2.40
2022-11-11T14:06:42.095Z,1.90
2022-11-11T14:09:14.064Z,2.20
2022-11-11T14:11:46.593Z,2.10
2022-11-11T14:14:59.793Z,2.30
2022-11-11T14:17:33.891Z,2.00
2022-11-11T14:20:25.938Z,2.40
2022-11-11T14:22:58.399Z,2.40
2022-11-11T14:25:44.143Z,2.50
2022-11-11T14:28:31.249Z,2.50
2022-11-11T14:31:25.361Z,2.20
2022-11-11T14:34:03.285Z,2.30
2022-11-11T14:36:45.355Z,2.60
2022-11-11T14:39:26.559Z,2.30
2022-11-11T14:41:58.879Z,3.00
2022-11-11T14:44:49.806Z,2.40
2022-11-11T14:47:38.438Z,2.80
2022-11-11T14:50:33.139Z,2.40
2022-11-11T14:53:12.051Z,2.50
2022-11-11T14:55:46.478Z,2.20
2022-11-11T14:58:21.887Z,2.00
2022-11-11T15:00:57.095Z,2.80
2022-11-11T15:03:35.584Z,2.60
2022-11-11T15:06:21.958Z,2.40
2022-11-11T15:09:02.871Z,2.60
2022-11-11T15:11:42.045Z,2.20
2022-11-11T15:14:37.894Z,2.80
2022-11-11T15:17:24.928Z,2.80
2022-11-11T15:20:06.529Z,2.90
2022-11-11T15:22:54.821Z,2.60
2022-11-11T15:25:46.021Z,2.70
2022-11-11T15:28:31.957Z,2.50
2022-11-11T15:31:13.761Z,2.70
2022-11-11T15:33:57.004Z,2.90
2022-11-11T15:39:10.878Z,2.20
2022-11-11T15:41:47.927Z,2.60
2022-11-11T15:44:25.685Z,2.20
2022-11-11T15:46:58.360Z,1.80
2022-11-11T15:49:50.041Z,1.80
2022-11-11T15:52:35.430Z,2.10
2022-11-11T15:55:21.462Z,2.40
2022-11-11T15:57:53.479Z,3.20
2022-11-11T16:00:36.407Z,2.50
2022-11-11T16:03:08.959Z,2.10
2022-11-11T16:05:41.463Z,1.90
2022-11-11T16:08:21.556Z,2.60
2022-11-11T16:10:57.612Z,2.90
2022-11-11T16:13:33.358Z,1.90
2022-11-11T16:16:10.892Z,2.90
2022-11-11T16:18:49.006Z,1.70
2022-11-11T16:21:24.971Z,2.00
2022-11-11T16:23:57.432Z,2.30
2022-11-11T16:26:29.489Z,1.90
2022-11-11T16:29:03.564Z,2.20
2022-11-11T16:31:45.720Z,2.40
2022-11-11T16:34:46.380Z,2.10
2022-11-11T16:37:19.240Z,2.70
2022-11-11T16:39:51.666Z,2.90
2022-11-11T16:42:27.519Z,2.10
2022-11-11T16:45:04.304Z,1.80
2022-11-11T16:47:57.383Z,2.60
2022-11-11T16:53:01.844Z,1.80
2022-11-11T16:55:38.828Z,1.90
2022-11-11T16:58:20.192Z,2.70
2022-11-11T17:00:52.263Z,2.50
2022-11-11T17:03:26.654Z,2.20
2022-11-11T17:06:00.854Z,2.90
2022-11-11T17:08:41.255Z,2.40
2022-11-11T17:11:13.883Z,2.20
2022-11-11T17:13:45.721Z,2.30
2022-11-11T17:16:21.875Z,3.00
2022-11-11T17:18:53.516Z,2.30
2022-11-11T17:21:25.324Z,1.80
2022-11-11T17:23:58.925Z,1.80
2022-11-11T17:26:37.274Z,2.30
2022-11-11T17:29:08.931Z,2.80
2022-11-11T17:31:41.226Z,2.30
2022-11-11T17:34:16.649Z,2.30
2022-11-11T17:36:47.927Z,2.10
2022-11-11T17:39:19.818Z,2.00
2022-11-11T17:41:51.203Z,2.30
2022-11-11T17:44:23.024Z,2.30
2022-11-11T17:46:55.058Z,2.50
2022-11-11T17:49:55.235Z,2.70
2022-11-11T17:52:20.221Z,1.90
2022-11-11T17:54:51.773Z,2.60
2022-11-11T17:57:23.678Z,2.10
2022-11-11T17:59:55.739Z,2.20
2022-11-11T18:02:27.283Z,2.10
2022-11-11T18:04:59.359Z,2.10
2022-11-11T18:07:31.247Z,2.70
2022-11-11T18:10:03.798Z,2.40
2022-11-11T18:12:35.779Z,2.30
2022-11-11T18:15:07.347Z,2.00
2022-11-11T18:17:39.579Z,2.30
2022-11-11T18:20:14.315Z,1.90
2022-11-11T18:22:46.175Z,2.30
2022-11-11T18:25:36.467Z,1.80
2022-11-11T18:28:08.324Z,2.10
2022-11-11T18:30:40.107Z,2.30
2022-11-11T18:33:12.407Z,2.40
2022-11-11T18:35:43.625Z,2.20
2022-11-11T18:38:18.073Z,2.60
2022-11-11T18:40:49.775Z,2.40
2022-11-11T18:43:26.793Z,1.80
2022-11-11T18:45:58.571Z,2.00
2022-11-11T18:48:30.678Z,1.70
2022-11-11T18:51:06.663Z,2.10
2022-11-11T18:53:40.102Z,2.70
2022-11-11T18:56:15.566Z,1.90
2022-11-11T18:59:15.204Z,1.70
2022-11-11T19:01:57.984Z,2.20
2022-11-11T19:04:33.831Z,2.30
2022-11-11T19:07:05.835Z,2.00
2022-11-11T19:09:38.313Z,2.00
2022-11-11T19:12:10.156Z,3.50
2022-11-11T19:14:42.014Z,2.20
2022-11-11T19:17:17.185Z,2.30
2022-11-11T19:19:52.803Z,2.00
2022-11-11T19:22:28.817Z,2.10
2022-11-11T19:25:04.327Z,2.40
2022-11-11T19:30:07.040Z,1.70
2022-11-11T19:32:38.824Z,1.80
2022-11-11T19:35:13.083Z,1.60
2022-11-11T19:37:45.459Z,1.90
2022-11-11T19:40:18.704Z,1.90
2022-11-11T19:42:54.049Z,1.40
2022-11-11T19:47:56.790Z,2.10
2022-11-11T19:50:28.286Z,2.00
2022-11-11T19:53:00.202Z,2.00
2022-11-11T19:55:31.771Z,1.90
2022-11-11T19:58:04.143Z,2.00
2022-11-11T20:00:35.993Z,2.20
2022-11-11T20:03:08.831Z,1.90
2022-11-11T20:05:41.963Z,2.10
2022-11-11T20:08:14.842Z,1.70
2022-11-11T20:10:47.899Z,1.90
2022-11-11T20:13:19.999Z,1.80
2022-11-11T20:15:51.669Z,1.80
2022-11-11T20:18:25.150Z,1.80
2022-11-11T20:23:26.139Z,1.70
2022-11-11T20:25:59.417Z,1.70
2022-11-11T20:31:00.056Z,2.00
2022-11-11T20:33:32.277Z,1.90
2022-11-11T20:36:07.053Z,2.00
2022-11-11T20:38:39.111Z,1.80
2022-11-11T20:41:14.147Z,2.20
2022-11-11T20:43:46.739Z,1.80
2022-11-11T20:48:51.374Z,1.70
2022-11-11T20:51:24.417Z,2.40
2022-11-11T20:53:58.933Z,1.80
2022-11-11T20:56:31.307Z,1.80
2022-11-11T20:59:04.350Z,2.40
2022-11-11T21:01:36.856Z,1.90
2022-11-11T21:04:08.730Z,1.80
2022-11-11T21:06:43.448Z,1.60
2022-11-11T21:09:15.274Z,1.70
2022-11-11T21:11:47.483Z,2.20
2022-11-11T21:14:19.305Z,1.90
2022-11-11T21:16:50.947Z,2.10
2022-11-11T21:19:22.775Z,1.90
2022-11-11T21:21:54.679Z,2.10
2022-11-11T21:24:26.632Z,2.30
2022-11-11T21:26:59.509Z,1.80
2022-11-11T21:32:00.356Z,2.50
2022-11-11T21:34:32.291Z,1.70
2022-11-11T21:37:03.782Z,2.10
2022-11-11T21:39:35.758Z,1.90
2022-11-11T21:42:07.122Z,2.60
2022-11-11T21:44:39.076Z,2.30
2022-11-11T21:47:10.906Z,1.80
2022-11-11T21:49:42.950Z,1.80
2022-11-11T21:52:15.023Z,1.80
2022-11-11T21:54:46.934Z,1.40
2022-11-11T21:57:18.463Z,1.90
2022-11-11T21:59:54.181Z,1.70
2022-11-11T22:02:31.482Z,1.30
2022-11-11T22:05:14.684Z,1.40
2022-11-11T22:07:53.559Z,1.70
2022-11-11T22:10:34.036Z,1.90
2022-11-11T22:13:09.446Z,1.80
2022-11-11T22:15:41.086Z,2.00
2022-11-11T22:18:14.213Z,1.50
2022-11-11T22:23:17.014Z,1.50
2022-11-11T22:25:48.943Z,2.10
2022-11-11T22:28:20.952Z,1.80
2022-11-11T22:30:53.362Z,1.80
2022-11-11T22:33:25.475Z,1.80
2022-11-11T22:36:00.730Z,1.80
2022-11-11T22:38:33.611Z,1.50
2022-11-11T22:41:10.270Z,1.90
2022-11-11T22:43:59.037Z,1.40
2022-11-11T22:46:32.808Z,1.50
2022-11-11T22:49:06.099Z,1.80
2022-11-11T22:51:44.358Z,1.90
2022-11-11T22:54:24.307Z,2.10
2022-11-11T22:56:56.810Z,1.70
2022-11-11T22:59:30.118Z,2.00
2022-11-11T23:02:02.747Z,2.00
2022-11-11T23:04:35.376Z,1.80
2022-11-11T23:09:41.048Z,1.70
2022-11-11T23:12:13.063Z,2.10
2022-11-11T23:14:45.101Z,1.70
2022-11-11T23:17:20.887Z,2.30
2022-11-11T23:19:52.617Z,2.10
2022-11-11T23:22:25.703Z,1.80
2022-11-11T23:24:58.244Z,2.10
2022-11-11T23:27:30.197Z,1.70
2022-11-11T23:30:02.581Z,2.50
2022-11-11T23:35:03.274Z,2.10
2022-11-11T23:37:35.325Z,1.80
2022-11-11T23:40:07.084Z,1.80
2022-11-11T23:42:42.308Z,1.70
2022-11-11T23:45:16.035Z,1.60
2022-11-11T23:47:47.686Z,1.60
2022-11-11T23:50:20.649Z,1.30
2022-11-11T23:52:52.188Z,1.60
2022-11-11T23:55:24.364Z,1.50
2022-11-11T23:57:56.075Z,1.60
